CheckWX is a tool to help pilots better visualize weather data.  It is not intended as a substitute for an official pre-flight weather briefing.

09:41:44 UTC

KBBP METAR
Marlboro County Jetport - H E Avent Field Airport
Bennettsville, South Carolina, USA
Current

7 mins ago

KBBP 250935Z AUTO 16016G24KT 10SM -DZ OVC003 12/12 A2975 RMK AO2
Observed
Feb-25 @ 09:35 UTC
Wind
  • 160° at 16 KTS
  • Gusting to 24 KTS
Visibility
10 SM
Flight Rules
LIFR
Conditions
Light Drizzle
Cloud Levels
  • Overcast at 300' AGL
Temperature
12°C / 54°F
Dewpoint
12°C / 54°F
Humidity
100%
Altimeter
29.75" Hg
Pressure
1007.42 hPa
Previous

27 mins ago

KBBP 250915Z AUTO 16015G22KT 10SM -DZ OVC003 12/12 A2981 RMK AO2
Observed
Feb-25 @ 09:15 UTC
Wind
  • 160° at 15 KTS
  • Gusting to 22 KTS
Visibility
10 SM
Flight Rules
LIFR
Conditions
Light Drizzle
Cloud Levels
  • Overcast at 300' AGL
Temperature
12°C / 54°F
Dewpoint
12°C / 54°F
Humidity
100%
Altimeter
29.81" Hg
Pressure
1009.52 hPa
Previous

47 mins ago

KBBP 250855Z AUTO 17014G18KT 7SM RA OVC003 12/12 A2984 RMK AO2 P0003
Observed
Feb-25 @ 08:55 UTC
Wind
  • 170° at 14 KTS
  • Gusting to 18 KTS
Visibility
7 SM
Flight Rules
LIFR
Conditions
Rain
Cloud Levels
  • Overcast at 300' AGL
Temperature
12°C / 54°F
Dewpoint
12°C / 54°F
Humidity
100%
Altimeter
29.84" Hg
Pressure
1010.52 hPa
Current Rain
0.03"